createdAt,value
2023-06-29T00:00:12.809Z,6.55
2023-06-29T00:02:14.480Z,7.38
2023-06-29T00:04:22.350Z,7.38
2023-06-29T00:06:24.061Z,6.88
2023-06-29T00:08:27.200Z,7.18
2023-06-29T00:10:30.181Z,7.10
2023-06-29T00:12:31.921Z,7.10
2023-06-29T00:14:33.606Z,9.25
2023-06-29T00:16:36.289Z,7.20
2023-06-29T00:18:38.015Z,7.20
2023-06-29T00:20:40.869Z,7.57
2023-06-29T00:22:49.236Z,8.23
2023-06-29T00:24:56.541Z,7.25
2023-06-29T00:26:58.189Z,8.65
2023-06-29T00:28:59.774Z,7.85
2023-06-29T00:31:01.507Z,7.47
2023-06-29T00:33:03.250Z,7.30
2023-06-29T00:35:05.256Z,7.30
2023-06-29T00:37:07.002Z,7.18
2023-06-29T00:39:08.778Z,7.78
2023-06-29T00:41:10.605Z,8.23
2023-06-29T00:43:12.251Z,7.50
2023-06-29T00:45:13.943Z,7.13
2023-06-29T00:47:15.828Z,6.70
2023-06-29T00:49:17.843Z,7.32
2023-06-29T00:51:19.558Z,7.25
2023-06-29T00:53:21.163Z,6.93
2023-06-29T00:55:22.816Z,7.35
2023-06-29T00:57:25.349Z,7.35
2023-06-29T00:59:27.137Z,7.03
2023-06-29T01:01:28.875Z,7.40
2023-06-29T01:03:32.072Z,6.68
2023-06-29T01:05:35.124Z,7.30
2023-06-29T01:08:00.639Z,6.80
2023-06-29T01:10:04.866Z,6.90
2023-06-29T01:12:07.448Z,7.55
2023-06-29T01:14:12.196Z,7.00
2023-06-29T01:16:15.461Z,8.13
2023-06-29T01:18:18.055Z,7.43
2023-06-29T01:20:20.111Z,7.22
2023-06-29T01:22:27.764Z,7.18
2023-06-29T01:24:38.428Z,7.10
2023-06-29T01:26:40.050Z,8.13
2023-06-29T01:28:41.719Z,9.43
2023-06-29T01:30:50.786Z,7.60
2023-06-29T01:32:52.713Z,7.70
2023-06-29T01:34:54.639Z,7.70
2023-06-29T01:37:03.234Z,8.15
2023-06-29T01:39:18.450Z,7.95
2023-06-29T01:41:20.828Z,7.68
2023-06-29T01:43:23.233Z,7.72
2023-06-29T01:45:25.921Z,8.90
2023-06-29T01:47:28.466Z,8.85
2023-06-29T01:49:30.238Z,8.63
2023-06-29T01:51:32.035Z,8.45
2023-06-29T01:53:37.237Z,8.85
2023-06-29T01:55:38.977Z,8.40
2023-06-29T01:57:40.721Z,9.77
2023-06-29T01:59:42.793Z,9.43
2023-06-29T02:01:44.468Z,9.07
2023-06-29T02:03:46.264Z,10.27
2023-06-29T02:05:48.039Z,10.65
2023-06-29T02:07:49.773Z,9.93
2023-06-29T02:09:52.659Z,10.43
2023-06-29T02:11:54.465Z,11.50
2023-06-29T02:13:56.192Z,9.77
2023-06-29T02:15:57.888Z,9.80
2023-06-29T02:17:59.719Z,10.55
2023-06-29T02:20:01.448Z,10.20
2023-06-29T02:22:03.170Z,9.70
2023-06-29T02:24:05.582Z,13.90
2023-06-29T02:26:07.468Z,10.30
2023-06-29T02:28:09.189Z,10.32
2023-06-29T02:30:11.219Z,9.65
2023-06-29T02:32:12.890Z,9.48
2023-06-29T02:34:14.531Z,9.93
2023-06-29T02:36:22.203Z,9.70
2023-06-29T02:38:24.000Z,9.20
2023-06-29T02:40:25.670Z,12.32
2023-06-29T02:42:28.479Z,9.02
2023-06-29T02:44:30.128Z,9.45
2023-06-29T02:46:31.847Z,9.05
2023-06-29T02:48:33.528Z,9.00
2023-06-29T02:50:35.335Z,9.18
2023-06-29T02:52:36.966Z,8.95
2023-06-29T02:54:38.607Z,9.63
2023-06-29T02:56:40.346Z,9.00
2023-06-29T02:58:42.001Z,9.20
2023-06-29T03:00:43.703Z,11.23
2023-06-29T03:02:45.433Z,8.95
2023-06-29T03:04:47.050Z,10.20
2023-06-29T03:06:48.730Z,9.68
2023-06-29T03:08:50.435Z,9.55
2023-06-29T03:10:52.615Z,9.20
2023-06-29T03:12:54.296Z,9.70
2023-06-29T03:14:55.960Z,8.88
2023-06-29T03:16:57.676Z,9.50
2023-06-29T03:18:59.370Z,9.15
2023-06-29T03:21:12.537Z,10.02
2023-06-29T03:23:19.152Z,9.98
2023-06-29T03:25:20.760Z,11.43
2023-06-29T03:27:22.381Z,12.05
2023-06-29T03:29:24.142Z,11.70
2023-06-29T03:31:25.848Z,12.05
2023-06-29T03:33:27.589Z,10.68
2023-06-29T03:35:29.255Z,12.15
2023-06-29T03:37:30.859Z,10.93
2023-06-29T03:39:32.523Z,11.85
2023-06-29T03:41:34.137Z,10.35
2023-06-29T03:43:35.871Z,13.15
2023-06-29T03:45:37.497Z,14.15
2023-06-29T03:47:39.201Z,10.52
2023-06-29T03:49:40.812Z,11.10
2023-06-29T03:51:42.493Z,11.93
2023-06-29T03:53:44.285Z,10.52
2023-06-29T03:55:46.497Z,11.20
2023-06-29T03:57:49.094Z,11.35
2023-06-29T03:59:50.785Z,11.82
2023-06-29T04:01:52.396Z,12.75
2023-06-29T04:03:54.856Z,14.48
2023-06-29T04:05:56.606Z,13.95
2023-06-29T04:08:06.312Z,10.32
2023-06-29T04:10:08.441Z,12.20
2023-06-29T04:12:10.374Z,11.02
2023-06-29T04:14:12.003Z,10.50
2023-06-29T04:16:14.676Z,11.43
2023-06-29T04:18:16.338Z,11.73
2023-06-29T04:20:18.375Z,11.68
2023-06-29T04:22:20.070Z,11.80
2023-06-29T04:24:21.961Z,13.85
2023-06-29T04:26:23.816Z,12.00
2023-06-29T04:28:25.572Z,12.18
2023-06-29T04:30:27.234Z,11.45
2023-06-29T04:32:28.942Z,11.98
2023-06-29T04:34:31.252Z,11.75
2023-06-29T04:36:33.011Z,12.07
2023-06-29T04:38:34.694Z,11.88
2023-06-29T04:40:40.267Z,11.32
2023-06-29T04:42:49.146Z,13.27
2023-06-29T04:44:50.871Z,13.73
2023-06-29T04:46:52.530Z,12.27
2023-06-29T04:48:54.158Z,12.10
2023-06-29T04:51:03.490Z,13.70
2023-06-29T04:53:10.723Z,12.88
2023-06-29T04:55:12.546Z,13.45
2023-06-29T04:57:14.183Z,11.73
2023-06-29T04:59:15.928Z,13.05
2023-06-29T05:01:17.596Z,13.05
2023-06-29T05:03:19.440Z,12.10
2023-06-29T05:05:21.160Z,12.05
2023-06-29T05:07:22.856Z,12.88
2023-06-29T05:09:24.476Z,12.18
2023-06-29T05:11:26.172Z,13.38
2023-06-29T05:13:27.807Z,12.57
2023-06-29T05:15:29.724Z,13.60
2023-06-29T05:17:33.744Z,12.85
2023-06-29T05:19:37.527Z,11.80
2023-06-29T05:21:39.199Z,11.82
2023-06-29T05:23:40.841Z,13.18
2023-06-29T05:25:43.580Z,12.20
2023-06-29T05:27:45.653Z,12.60
2023-06-29T05:29:47.406Z,12.98
2023-06-29T05:31:49.149Z,15.45
2023-06-29T05:33:50.845Z,13.38
2023-06-29T05:35:52.449Z,16.02
2023-06-29T05:37:54.138Z,12.38
2023-06-29T05:39:57.814Z,13.20
2023-06-29T05:44:01.127Z,11.52
2023-06-29T05:46:04.065Z,13.05
2023-06-29T05:48:06.692Z,14.80
2023-06-29T05:50:08.929Z,13.00
2023-06-29T05:52:10.640Z,12.07
2023-06-29T05:54:12.237Z,13.13
2023-06-29T05:56:13.915Z,13.25
2023-06-29T05:58:15.557Z,13.82
2023-06-29T06:00:19.388Z,14.90
2023-06-29T06:02:21.247Z,18.08
2023-06-29T06:04:22.932Z,14.38
2023-06-29T06:06:24.649Z,15.63
2023-06-29T06:08:26.309Z,13.73
2023-06-29T06:10:27.974Z,12.88
2023-06-29T06:12:30.089Z,13.52
2023-06-29T06:14:31.723Z,13.10
2023-06-29T06:16:33.495Z,12.60
2023-06-29T06:18:35.177Z,16.30
2023-06-29T06:20:36.976Z,17.27
2023-06-29T06:22:38.658Z,13.30
2023-06-29T06:24:40.292Z,17.25
2023-06-29T06:26:41.925Z,13.90
2023-06-29T06:28:43.566Z,11.50
2023-06-29T06:30:45.395Z,8.73
2023-06-29T06:32:47.208Z,11.10
2023-06-29T06:34:52.028Z,18.70
2023-06-29T06:36:53.720Z,10.30
2023-06-29T06:38:55.329Z,14.38
2023-06-29T06:40:57.164Z,16.58
2023-06-29T06:42:59.934Z,10.73
2023-06-29T06:45:04.836Z,13.35
2023-06-29T06:47:06.869Z,12.80
2023-06-29T06:49:08.556Z,18.38
2023-06-29T06:51:10.182Z,12.35
2023-06-29T06:53:11.961Z,13.57
2023-06-29T06:55:13.881Z,12.70
2023-06-29T06:57:15.646Z,11.00
2023-06-29T06:59:17.406Z,15.50
2023-06-29T07:01:22.420Z,10.45
2023-06-29T07:03:25.625Z,19.35
2023-06-29T07:05:27.308Z,10.90
2023-06-29T07:07:28.988Z,10.15
2023-06-29T07:09:31.113Z,11.02
2023-06-29T07:11:32.774Z,11.27
2023-06-29T07:13:34.421Z,8.68
2023-06-29T07:15:36.043Z,7.85
2023-06-29T07:17:37.746Z,8.40
2023-06-29T07:24:08.186Z,8.55
2023-06-29T07:26:10.131Z,12.60
2023-06-29T07:28:13.014Z,18.40
2023-06-29T07:30:15.053Z,19.90
2023-06-29T07:32:16.697Z,11.35
2023-06-29T07:34:23.911Z,16.50
2023-06-29T07:36:26.995Z,11.52
2023-06-29T07:38:28.626Z,13.15
2023-06-29T07:40:30.449Z,24.25
2023-06-29T07:42:39.456Z,9.55
2023-06-29T07:44:41.890Z,7.95
2023-06-29T07:46:43.702Z,9.68
2023-06-29T07:48:45.503Z,14.48
2023-06-29T07:50:47.169Z,12.57
2023-06-29T07:52:48.812Z,7.97
2023-06-29T07:54:53.018Z,8.98
2023-06-29T07:58:59.176Z,10.10
2023-06-29T08:01:00.810Z,8.95
2023-06-29T08:03:02.604Z,7.55
2023-06-29T08:07:10.735Z,7.10
2023-06-29T08:09:12.935Z,10.15
2023-06-29T08:11:15.345Z,6.20
2023-06-29T08:13:17.504Z,7.75
2023-06-29T08:15:19.261Z,8.85
2023-06-29T08:17:21.016Z,8.32
2023-06-29T08:19:22.708Z,6.93
2023-06-29T08:21:24.551Z,7.22
2023-06-29T08:23:26.304Z,5.78
2023-06-29T08:25:28.642Z,6.85
2023-06-29T08:27:30.320Z,6.47
2023-06-29T08:29:31.993Z,9.15
2023-06-29T08:31:33.982Z,5.53
2023-06-29T08:33:35.871Z,5.28
2023-06-29T08:35:37.524Z,6.85
2023-06-29T08:37:39.299Z,8.25
2023-06-29T08:39:41.518Z,6.43
2023-06-29T08:41:43.167Z,7.45
2023-06-29T08:43:45.059Z,4.55
2023-06-29T08:45:47.263Z,6.10
2023-06-29T08:47:52.837Z,10.77
2023-06-29T08:49:57.659Z,10.77
2023-06-29T08:52:00.959Z,5.97
2023-06-29T08:54:02.971Z,5.30
2023-06-29T08:56:04.948Z,4.32
2023-06-29T08:58:06.771Z,4.90
2023-06-29T09:00:09.821Z,7.60
2023-06-29T09:02:11.994Z,4.15
2023-06-29T09:04:13.939Z,5.35
2023-06-29T09:06:16.392Z,7.38
2023-06-29T09:08:18.423Z,4.93
2023-06-29T09:10:20.124Z,4.10
2023-06-29T09:12:21.861Z,4.63
2023-06-29T09:14:23.749Z,8.88
2023-06-29T09:16:29.655Z,4.78
2023-06-29T09:18:34.002Z,5.18
2023-06-29T09:20:36.691Z,8.70
2023-06-29T09:22:40.436Z,4.38
2023-06-29T09:24:57.309Z,5.18
2023-06-29T09:27:04.237Z,5.30
2023-06-29T09:29:05.868Z,5.32
2023-06-29T09:31:09.827Z,7.28
2023-06-29T09:33:13.144Z,7.53
2023-06-29T09:35:14.805Z,4.40
2023-06-29T09:37:17.446Z,7.10
2023-06-29T09:39:20.234Z,9.52
2023-06-29T09:41:21.989Z,5.63
2023-06-29T09:43:28.393Z,4.53
2023-06-29T09:45:31.941Z,4.50
2023-06-29T09:49:56.033Z,7.40
2023-06-29T09:52:05.230Z,4.50
2023-06-29T09:54:15.003Z,4.70
2023-06-29T09:56:17.588Z,7.38
2023-06-29T09:58:19.749Z,3.72
2023-06-29T10:00:21.652Z,6.97
2023-06-29T10:02:23.411Z,5.03
2023-06-29T10:04:28.247Z,4.03
2023-06-29T10:06:51.318Z,8.13
2023-06-29T10:08:56.682Z,4.18
2023-06-29T10:11:03.683Z,2.90
2023-06-29T10:13:06.976Z,5.13
2023-06-29T10:15:10.441Z,3.20
2023-06-29T10:17:44.323Z,3.95
2023-06-29T10:19:46.810Z,4.18
2023-06-29T10:21:57.998Z,4.95
2023-06-29T10:24:00.289Z,2.47
2023-06-29T10:26:02.447Z,3.85
2023-06-29T10:28:04.811Z,4.70
2023-06-29T10:30:07.072Z,3.88
2023-06-29T10:32:08.950Z,4.25
2023-06-29T10:34:10.588Z,3.17
2023-06-29T10:36:14.197Z,4.93
2023-06-29T10:38:15.904Z,3.63
2023-06-29T10:40:26.066Z,3.70
2023-06-29T10:42:28.054Z,5.97
2023-06-29T10:44:35.802Z,6.30
2023-06-29T10:46:50.731Z,5.25
2023-06-29T10:49:00.817Z,5.47
2023-06-29T10:51:07.161Z,4.20
2023-06-29T10:53:11.699Z,4.85
2023-06-29T10:55:24.292Z,5.25
2023-06-29T10:57:31.970Z,5.63
2023-06-29T10:59:35.572Z,4.20
2023-06-29T11:03:39.220Z,4.00
2023-06-29T11:05:41.186Z,4.57
2023-06-29T11:07:44.573Z,5.22
2023-06-29T11:09:46.243Z,6.63
2023-06-29T11:11:48.825Z,3.35
2023-06-29T11:13:50.463Z,5.53
2023-06-29T11:15:58.748Z,3.88
2023-06-29T11:18:03.750Z,4.47
2023-06-29T11:20:06.988Z,3.10
2023-06-29T11:22:08.800Z,3.92
2023-06-29T11:24:11.394Z,5.70
2023-06-29T11:26:13.128Z,6.35
2023-06-29T11:28:17.931Z,5.22
2023-06-29T11:30:21.440Z,2.92
2023-06-29T11:34:24.785Z,3.50
2023-06-29T11:36:30.115Z,4.25
2023-06-29T11:38:32.118Z,5.70
2023-06-29T11:40:35.215Z,7.10
2023-06-29T11:42:37.538Z,4.80
2023-06-29T11:44:39.241Z,4.60
2023-06-29T11:46:41.298Z,5.80
2023-06-29T11:48:55.377Z,5.65
2023-06-29T11:51:00.452Z,5.72
2023-06-29T11:53:02.443Z,5.15
2023-06-29T11:55:07.375Z,8.30
2023-06-29T11:57:09.552Z,7.78
2023-06-29T11:59:13.437Z,3.55
2023-06-29T12:01:16.146Z,3.38
2023-06-29T12:03:19.608Z,5.90
2023-06-29T12:05:27.057Z,3.90
2023-06-29T12:07:55.040Z,5.97
2023-06-29T12:09:56.875Z,4.70
2023-06-29T12:12:03.652Z,4.80
2023-06-29T12:14:05.303Z,4.35
2023-06-29T12:18:17.090Z,3.88
2023-06-29T12:20:21.193Z,4.85
2023-06-29T12:22:24.640Z,5.53
2023-06-29T12:24:29.101Z,4.65
2023-06-29T12:26:31.394Z,2.58
2023-06-29T12:28:33.822Z,3.70
2023-06-29T12:30:36.435Z,4.78
2023-06-29T12:32:38.734Z,2.60
2023-06-29T12:34:40.446Z,5.22
2023-06-29T12:36:42.128Z,4.05
2023-06-29T12:38:43.789Z,4.15
2023-06-29T12:40:45.467Z,3.85
2023-06-29T12:42:47.162Z,4.80
2023-06-29T12:44:48.883Z,5.00
2023-06-29T12:46:50.551Z,5.10
2023-06-29T12:48:52.204Z,5.13
2023-06-29T12:51:00.648Z,5.55
2023-06-29T12:53:02.338Z,3.15
2023-06-29T12:55:04.421Z,3.42
2023-06-29T12:57:06.366Z,4.22
2023-06-29T12:59:08.058Z,4.30
2023-06-29T13:01:09.714Z,3.25
2023-06-29T13:03:15.863Z,5.68
2023-06-29T13:05:17.808Z,4.10
2023-06-29T13:07:20.879Z,3.70
2023-06-29T13:09:23.207Z,3.95
2023-06-29T13:11:25.349Z,4.38
2023-06-29T13:13:27.900Z,4.85
2023-06-29T13:15:29.705Z,4.03
2023-06-29T13:17:31.389Z,3.75
2023-06-29T13:19:33.311Z,5.13
2023-06-29T13:21:36.272Z,4.53
2023-06-29T13:23:38.057Z,4.75
2023-06-29T13:25:40.854Z,3.47
2023-06-29T13:27:44.124Z,4.43
2023-06-29T13:29:45.859Z,6.25
2023-06-29T13:31:47.603Z,4.03
2023-06-29T13:33:49.292Z,4.75
2023-06-29T13:35:50.980Z,2.58
2023-06-29T13:37:52.655Z,2.72
2023-06-29T13:39:54.334Z,2.90
2023-06-29T13:41:56.052Z,3.75
2023-06-29T13:43:57.717Z,5.55
2023-06-29T13:45:59.367Z,4.70
2023-06-29T13:48:01.838Z,3.08
2023-06-29T13:50:03.785Z,3.22
2023-06-29T13:52:05.644Z,4.53
2023-06-29T13:54:07.532Z,3.03
2023-06-29T13:56:09.359Z,5.47
2023-06-29T13:58:11.002Z,4.25
2023-06-29T14:00:13.919Z,3.50
2023-06-29T14:02:15.669Z,3.38
2023-06-29T14:04:17.681Z,3.65
2023-06-29T14:06:19.974Z,3.20
2023-06-29T14:08:23.566Z,4.40
2023-06-29T14:10:26.120Z,7.57
2023-06-29T14:12:27.754Z,4.32
2023-06-29T14:14:29.384Z,4.68
2023-06-29T14:16:31.495Z,6.63
2023-06-29T14:18:33.196Z,4.57
2023-06-29T14:20:34.974Z,2.80
2023-06-29T14:22:36.671Z,3.63
2023-06-29T14:24:38.468Z,3.17
2023-06-29T14:26:40.224Z,5.05
2023-06-29T14:28:42.255Z,7.80
2023-06-29T14:30:43.971Z,5.45
2023-06-29T14:32:45.756Z,3.80
2023-06-29T14:34:49.525Z,3.67
2023-06-29T14:36:51.364Z,5.55
2023-06-29T14:38:53.254Z,4.82
2023-06-29T14:40:55.001Z,3.70
2023-06-29T14:42:56.738Z,3.15
2023-06-29T14:44:58.359Z,3.55
2023-06-29T14:47:00.848Z,3.22
2023-06-29T14:49:02.492Z,3.15
2023-06-29T14:51:04.148Z,4.32
2023-06-29T14:53:06.124Z,5.45
2023-06-29T14:55:08.520Z,4.97
2023-06-29T14:57:10.418Z,5.50
2023-06-29T14:59:12.656Z,9.10
2023-06-29T15:01:14.488Z,4.20
2023-06-29T15:03:16.320Z,4.57
2023-06-29T15:05:18.097Z,3.88
2023-06-29T15:07:19.910Z,7.05
2023-06-29T15:09:22.889Z,3.88
2023-06-29T15:11:24.529Z,9.32
2023-06-29T15:13:26.317Z,5.53
2023-06-29T15:15:27.997Z,5.05
2023-06-29T15:17:30.537Z,4.63
2023-06-29T15:19:32.235Z,6.23
2023-06-29T15:21:34.002Z,4.85
2023-06-29T15:23:35.673Z,3.22
2023-06-29T15:25:39.206Z,4.63
2023-06-29T15:27:41.840Z,14.25
2023-06-29T15:29:43.548Z,4.45
2023-06-29T15:31:45.272Z,3.45
2023-06-29T15:33:46.890Z,3.55
2023-06-29T15:35:49.440Z,6.28
2023-06-29T15:37:53.056Z,4.97
2023-06-29T15:39:55.141Z,7.55
2023-06-29T15:41:56.842Z,3.80
2023-06-29T15:44:01.867Z,4.75
2023-06-29T15:46:03.568Z,5.95
2023-06-29T15:48:05.351Z,7.32
2023-06-29T15:50:07.900Z,3.92
2023-06-29T15:52:09.572Z,3.58
2023-06-29T15:54:11.421Z,5.18
2023-06-29T15:56:13.080Z,3.17
2023-06-29T15:58:14.705Z,3.70
2023-06-29T16:00:16.839Z,3.70
2023-06-29T16:02:18.552Z,6.97
2023-06-29T16:04:20.416Z,3.72
2023-06-29T16:06:27.448Z,6.20
2023-06-29T16:08:29.086Z,4.80
2023-06-29T16:10:30.780Z,9.85
2023-06-29T16:12:32.824Z,7.70
2023-06-29T16:14:34.438Z,8.40
2023-06-29T16:16:36.295Z,5.35
2023-06-29T16:18:38.028Z,9.23
2023-06-29T16:20:39.755Z,7.85
2023-06-29T16:22:41.404Z,7.50
2023-06-29T16:24:43.095Z,8.45
2023-06-29T16:26:45.029Z,5.72
2023-06-29T16:28:46.681Z,4.93
2023-06-29T16:30:48.378Z,5.90
2023-06-29T16:32:50.058Z,6.45
2023-06-29T16:34:51.870Z,8.55
2023-06-29T16:36:53.666Z,5.65
2023-06-29T16:38:55.356Z,4.22
2023-06-29T16:40:57.036Z,6.97
2023-06-29T16:42:58.729Z,4.90
2023-06-29T16:45:00.404Z,4.93
2023-06-29T16:47:02.719Z,9.35
2023-06-29T16:49:04.439Z,9.88
2023-06-29T16:51:06.309Z,6.70
2023-06-29T16:53:08.009Z,8.82
2023-06-29T16:55:10.052Z,10.65
2023-06-29T16:57:11.810Z,5.13
2023-06-29T16:59:13.561Z,6.22
2023-06-29T17:01:15.337Z,5.75
2023-06-29T17:03:17.041Z,4.85
2023-06-29T17:05:18.833Z,5.97
2023-06-29T17:07:20.557Z,5.22
2023-06-29T17:09:22.238Z,4.10
2023-06-29T17:11:23.996Z,4.35
2023-06-29T17:13:28.448Z,4.60
2023-06-29T17:15:30.330Z,4.65
2023-06-29T17:17:32.123Z,6.28
2023-06-29T17:19:33.879Z,7.25
2023-06-29T17:21:35.608Z,4.68
2023-06-29T17:23:37.273Z,6.90
2023-06-29T17:25:48.326Z,4.85
2023-06-29T17:27:50.067Z,6.97
2023-06-29T17:29:51.768Z,4.43
2023-06-29T17:31:54.283Z,5.47
2023-06-29T17:33:56.269Z,9.40
2023-06-29T17:35:57.895Z,7.32
2023-06-29T17:37:59.566Z,11.25
2023-06-29T17:40:02.318Z,13.45
2023-06-29T17:42:04.245Z,9.48
2023-06-29T17:44:06.094Z,9.20
2023-06-29T17:46:07.856Z,11.57
2023-06-29T17:48:10.518Z,7.80
2023-06-29T17:50:12.189Z,7.78
2023-06-29T17:52:13.841Z,14.57
2023-06-29T17:54:15.489Z,8.02
2023-06-29T17:56:17.369Z,5.72
2023-06-29T17:58:19.111Z,5.68
2023-06-29T18:00:21.086Z,7.80
2023-06-29T18:02:22.868Z,7.88
2023-06-29T18:04:25.068Z,7.65
2023-06-29T18:06:26.971Z,7.50
2023-06-29T18:08:28.657Z,6.05
2023-06-29T18:10:30.379Z,7.53
2023-06-29T18:12:32.256Z,4.97
2023-06-29T18:14:33.876Z,8.63
2023-06-29T18:16:36.924Z,5.30
2023-06-29T18:18:38.618Z,6.47
2023-06-29T18:20:40.366Z,7.82
2023-06-29T18:22:42.140Z,5.80
2023-06-29T18:24:43.773Z,7.28
2023-06-29T18:26:46.764Z,6.13
2023-06-29T18:28:49.724Z,7.05
2023-06-29T18:30:51.628Z,8.40
2023-06-29T18:32:53.647Z,6.28
2023-06-29T18:34:55.378Z,6.80
2023-06-29T18:36:57.081Z,6.75
2023-06-29T18:38:58.750Z,7.50
2023-06-29T18:41:02.308Z,20.23
2023-06-29T18:45:07.145Z,5.22
2023-06-29T18:47:11.006Z,7.65
2023-06-29T18:49:13.759Z,9.63
2023-06-29T18:51:15.462Z,6.93
2023-06-29T18:53:17.259Z,11.38
2023-06-29T18:55:19.109Z,6.45
2023-06-29T18:57:20.824Z,6.25
2023-06-29T18:59:22.857Z,6.97
2023-06-29T19:01:24.575Z,8.68
2023-06-29T19:03:28.031Z,8.55
2023-06-29T19:07:32.619Z,10.88
2023-06-29T19:09:34.336Z,6.97
2023-06-29T19:11:36.106Z,7.03
2023-06-29T19:13:37.800Z,7.35
2023-06-29T19:15:41.420Z,7.70
2023-06-29T19:19:45.212Z,7.38
2023-06-29T19:21:49.003Z,5.68
2023-06-29T19:23:51.406Z,7.43
2023-06-29T19:25:53.040Z,5.78
2023-06-29T19:27:54.691Z,5.93
2023-06-29T19:29:56.428Z,5.47
2023-06-29T19:31:58.125Z,9.45
2023-06-29T19:34:00.531Z,5.72
2023-06-29T19:36:02.214Z,6.03
2023-06-29T19:38:03.903Z,7.85
2023-06-29T19:40:06.339Z,7.18
2023-06-29T19:42:09.529Z,5.10
2023-06-29T19:44:11.281Z,6.88
2023-06-29T19:46:12.972Z,5.63
2023-06-29T19:48:15.313Z,5.93
2023-06-29T19:50:17.867Z,9.07
2023-06-29T19:52:19.997Z,8.48
2023-06-29T19:54:21.701Z,6.55
2023-06-29T19:56:23.559Z,6.82
2023-06-29T19:58:25.580Z,5.38
2023-06-29T20:00:29.101Z,6.47
2023-06-29T20:02:32.507Z,10.20
2023-06-29T20:04:34.315Z,8.13
2023-06-29T20:06:36.143Z,8.38
2023-06-29T20:08:37.842Z,5.97
2023-06-29T20:10:39.521Z,8.68
2023-06-29T20:12:41.160Z,5.53
2023-06-29T20:14:42.838Z,8.20
2023-06-29T20:16:44.801Z,5.43
2023-06-29T20:18:46.579Z,4.80
2023-06-29T20:20:48.384Z,6.82
2023-06-29T20:22:50.111Z,8.88
2023-06-29T20:24:51.802Z,6.38
2023-06-29T20:26:53.488Z,7.25
2023-06-29T20:28:56.729Z,7.07
2023-06-29T20:30:58.388Z,6.43
2023-06-29T20:33:00.082Z,5.22
2023-06-29T20:35:01.826Z,5.68
2023-06-29T20:37:03.783Z,8.80
2023-06-29T20:39:05.516Z,10.25
2023-06-29T20:41:07.272Z,4.03
2023-06-29T20:43:08.990Z,6.82
2023-06-29T20:45:13.421Z,8.30
2023-06-29T20:47:15.651Z,4.70
2023-06-29T20:49:20.500Z,4.78
2023-06-29T20:51:22.182Z,5.70
2023-06-29T20:53:23.878Z,4.65
2023-06-29T20:55:25.516Z,6.68
2023-06-29T20:57:27.222Z,7.03
2023-06-29T20:59:31.753Z,4.88
2023-06-29T21:01:34.496Z,4.97
2023-06-29T21:03:36.479Z,4.75
2023-06-29T21:05:38.278Z,5.70
2023-06-29T21:07:40.800Z,5.85
2023-06-29T21:09:42.616Z,4.15
2023-06-29T21:11:44.380Z,4.05
2023-06-29T21:13:46.251Z,5.50
2023-06-29T21:15:48.461Z,7.40
2023-06-29T21:17:50.595Z,5.25
2023-06-29T21:19:53.128Z,5.10
2023-06-29T21:21:55.008Z,5.15
2023-06-29T21:23:56.822Z,10.48
2023-06-29T21:25:58.756Z,6.50
2023-06-29T21:28:00.640Z,7.95
2023-06-29T21:30:03.337Z,5.10
2023-06-29T21:32:07.525Z,5.20
2023-06-29T21:34:10.875Z,5.57
2023-06-29T21:36:13.059Z,4.90
2023-06-29T21:38:14.916Z,8.65
2023-06-29T21:40:16.619Z,4.55
2023-06-29T21:42:19.783Z,4.22
2023-06-29T21:44:21.575Z,7.90
2023-06-29T21:46:23.250Z,4.72
2023-06-29T21:48:24.911Z,5.20
2023-06-29T21:50:26.737Z,4.55
2023-06-29T21:52:29.105Z,4.78
2023-06-29T21:54:30.815Z,3.47
2023-06-29T21:56:32.529Z,7.30
2023-06-29T21:58:34.176Z,6.78
2023-06-29T22:00:36.725Z,4.88
2023-06-29T22:02:38.781Z,5.32
2023-06-29T22:04:40.577Z,6.43
2023-06-29T22:06:42.238Z,4.28
2023-06-29T22:08:43.920Z,5.43
2023-06-29T22:10:45.644Z,6.50
2023-06-29T22:12:49.369Z,3.60
2023-06-29T22:16:52.660Z,6.22
2023-06-29T22:18:54.398Z,5.05
2023-06-29T22:20:56.229Z,4.32
2023-06-29T22:22:58.963Z,5.55
2023-06-29T22:25:00.584Z,5.70
2023-06-29T22:27:02.197Z,5.88
2023-06-29T22:29:03.924Z,6.05
2023-06-29T22:31:05.690Z,4.10
2023-06-29T22:33:07.456Z,6.82
2023-06-29T22:35:09.293Z,4.53
2023-06-29T22:37:10.980Z,8.63
2023-06-29T22:39:12.722Z,6.97
2023-06-29T22:41:14.964Z,5.40
2023-06-29T22:43:16.667Z,5.55
2023-06-29T22:45:19.217Z,4.78
2023-06-29T22:47:22.465Z,4.97
2023-06-29T22:49:24.173Z,5.22
2023-06-29T22:51:26.229Z,5.10
2023-06-29T22:53:28.084Z,4.90
2023-06-29T22:55:29.785Z,6.68
2023-06-29T22:57:31.634Z,7.43
2023-06-29T22:59:33.278Z,4.30
2023-06-29T23:01:35.233Z,4.35
2023-06-29T23:03:37.089Z,6.90
2023-06-29T23:05:38.832Z,7.38
2023-06-29T23:07:45.035Z,7.50
2023-06-29T23:09:47.148Z,7.50
2023-06-29T23:11:49.789Z,4.07
2023-06-29T23:13:51.914Z,6.75
2023-06-29T23:15:53.670Z,4.13
2023-06-29T23:17:55.353Z,4.40
2023-06-29T23:19:58.285Z,6.13
2023-06-29T23:21:59.977Z,4.35
2023-06-29T23:24:04.497Z,6.18
2023-06-29T23:26:08.708Z,4.70
2023-06-29T23:28:10.762Z,5.43
2023-06-29T23:30:14.012Z,4.00
2023-06-29T23:32:15.720Z,6.82
2023-06-29T23:34:17.475Z,5.00
2023-06-29T23:36:22.593Z,4.53
2023-06-29T23:38:24.538Z,6.65
2023-06-29T23:40:27.268Z,7.35
2023-06-29T23:42:29.094Z,8.77
2023-06-29T23:44:30.895Z,6.47
2023-06-29T23:46:46.110Z,7.13
2023-06-29T23:48:47.772Z,5.20
2023-06-29T23:50:49.544Z,5.78
2023-06-29T23:52:51.221Z,6.55
2023-06-29T23:54:52.978Z,4.88
2023-06-29T23:56:54.696Z,4.85
2023-06-29T23:58:56.393Z,4.95
